Time;durP1;ratioP1;P1;durP2;ratioP2;P2;SDS_P1;SDS_P2;PMS_P1;PMS_P2;Temp;Humidity;BMP_temperature;BMP_pressure;BME280_temperature;BME280_humidity;BME280_pressure;Samples;Min_cycle;Max_cycle;Signal;HPM_P1;HPM_P2
2021/03/02 00:00:15;;;;;;;43.88;23.40;;;4.90;94.20;;;;;;4609882;30;20493;-84
2021/03/02 00:03:09;;;;;;;48.70;23.73;;;4.90;94.30;;;;;;4619680;30;20051;-85
2021/03/02 00:06:28;;;;;;;46.17;23.20;;;4.80;94.40;;;;;;4645312;30;20496;-88
2021/03/02 00:09:06;;;;;;;32.90;18.47;;;4.80;94.30;;;;;;4596741;30;20402;-83
2021/03/02 00:11:45;;;;;;;41.07;21.07;;;4.80;94.30;;;;;;4609455;31;20055;-83
2021/03/02 00:14:23;;;;;;;43.53;21.60;;;4.80;94.30;;;;;;4595125;31;20067;-86
2021/03/02 00:17:00;;;;;;;44.53;23.10;;;4.70;94.30;;;;;;4613833;30;20051;-87
2021/03/02 00:19:33;;;;;;;42.83;22.37;;;4.70;94.70;;;;;;4609890;31;20063;-89
2021/03/02 00:22:24;;;;;;;49.90;22.53;;;4.70;94.50;;;;;;4589867;31;20039;-85
2021/03/02 00:25:00;;;;;;;41.43;22.03;;;4.70;94.50;;;;;;4613611;30;20067;-82
2021/03/02 00:27:29;;;;;;;48.00;23.07;;;4.70;94.50;;;;;;4611983;30;20574;-81
2021/03/02 00:29:57;;;;;;;37.87;19.30;;;4.70;94.50;;;;;;4593851;30;20059;-83
2021/03/02 00:35:28;;;;;;;46.03;24.85;;;4.60;94.50;;;;;;5354888;25;21408;-90
2021/03/02 00:37:57;;;;;;;45.40;23.63;;;4.60;94.60;;;;;;4601624;30;20051;-88
2021/03/02 00:40:24;;;;;;;45.20;23.77;;;4.50;94.60;;;;;;4610864;30;20054;-84
2021/03/02 00:42:51;;;;;;;40.27;20.93;;;4.60;94.70;;;;;;4613772;30;20063;-84
2021/03/02 00:45:19;;;;;;;41.47;22.87;;;4.50;94.60;;;;;;4640332;30;20061;-85
2021/03/02 00:47:48;;;;;;;45.30;22.27;;;4.50;94.60;;;;;;4613565;30;20042;-79
2021/03/02 00:50:15;;;;;;;40.80;19.97;;;4.50;94.60;;;;;;4641877;30;20046;-83
2021/03/02 00:52:42;;;;;;;40.67;20.40;;;4.50;94.60;;;;;;4599278;30;20051;-88
2021/03/02 00:55:10;;;;;;;40.63;20.03;;;4.40;94.60;;;;;;4641237;30;20062;-85
2021/03/02 00:57:37;;;;;;;36.53;19.10;;;4.40;94.70;;;;;;4612649;30;20061;-81
2021/03/02 01:00:08;;;;;;;47.00;23.03;;;4.40;94.70;;;;;;4641649;30;20097;-81
2021/03/02 01:02:35;;;;;;;46.33;24.23;;;4.40;94.80;;;;;;4624949;30;20050;-82
2021/03/02 01:05:08;;;;;;;43.53;22.93;;;4.30;94.80;;;;;;4613815;30;20051;-80
2021/03/02 01:07:41;;;;;;;40.43;20.43;;;4.30;94.80;;;;;;4628250;30;20050;-80
2021/03/02 01:10:11;;;;;;;46.50;21.27;;;4.30;94.80;;;;;;4589523;30;20050;-80
2021/03/02 01:12:39;;;;;;;43.57;22.07;;;4.30;94.90;;;;;;4627279;30;20039;-81
2021/03/02 01:15:08;;;;;;;49.73;23.13;;;4.30;94.90;;;;;;4603967;30;20054;-80
2021/03/02 01:17:35;;;;;;;43.23;22.33;;;4.30;94.90;;;;;;4623657;30;20089;-79
2021/03/02 01:20:03;;;;;;;38.10;19.63;;;4.30;94.90;;;;;;4612226;30;20050;-79
2021/03/02 01:22:30;;;;;;;46.20;24.50;;;4.20;94.80;;;;;;4642810;30;20084;-83
2021/03/02 01:24:56;;;;;;;47.70;24.73;;;4.20;94.90;;;;;;4599520;30;20046;-84
2021/03/02 01:27:23;;;;;;;39.00;21.37;;;4.20;95.00;;;;;;4598453;30;20137;-84
2021/03/02 01:29:49;;;;;;;49.27;24.27;;;4.20;95.10;;;;;;4610844;30;20411;-84
2021/03/02 01:32:16;;;;;;;48.60;24.23;;;4.20;95.00;;;;;;4627906;30;20539;-80
2021/03/02 01:34:43;;;;;;;50.13;25.53;;;4.20;95.10;;;;;;4599063;30;20061;-80
2021/03/02 01:37:10;;;;;;;41.93;22.57;;;4.20;95.10;;;;;;4597213;30;20412;-79
2021/03/02 01:39:36;;;;;;;48.80;23.57;;;4.10;95.20;;;;;;4626499;30;20034;-83
2021/03/02 01:42:03;;;;;;;47.53;22.47;;;4.10;95.10;;;;;;4625223;30;20153;-80
2021/03/02 01:44:30;;;;;;;42.40;22.33;;;4.10;95.10;;;;;;4641284;30;20043;-81
2021/03/02 01:46:57;;;;;;;46.60;23.23;;;4.00;95.10;;;;;;4613713;30;20046;-80
2021/03/02 01:49:24;;;;;;;51.53;23.57;;;4.00;95.10;;;;;;4617558;30;20042;-81
2021/03/02 01:51:51;;;;;;;44.90;21.50;;;4.00;95.10;;;;;;4644554;30;20053;-83
2021/03/02 01:54:18;;;;;;;38.43;18.30;;;4.00;95.10;;;;;;4603228;30;20427;-84
2021/03/02 01:56:45;;;;;;;42.27;19.93;;;4.00;95.10;;;;;;4642876;30;20054;-80
2021/03/02 01:59:12;;;;;;;43.83;23.27;;;3.90;95.10;;;;;;4609495;30;20050;-84
2021/03/02 02:01:40;;;;;;;39.93;20.13;;;3.90;95.10;;;;;;4644929;30;20491;-84
2021/03/02 02:04:20;;;;;;;51.43;23.70;;;3.90;95.20;;;;;;4643613;30;20107;-84
2021/03/02 02:07:22;;;;;;;52.77;24.27;;;3.90;95.30;;;;;;4627540;30;20047;-85
2021/03/02 02:09:59;;;;;;;41.83;20.60;;;3.90;95.20;;;;;;4619141;30;20070;-82
2021/03/02 02:12:48;;;;;;;45.53;22.37;;;3.80;95.20;;;;;;4641402;30;20062;-85
2021/03/02 02:15:20;;;;;;;48.23;24.77;;;3.80;95.30;;;;;;4636470;30;20049;-80
2021/03/02 02:18:03;;;;;;;51.17;24.50;;;3.80;95.40;;;;;;4649580;30;20070;-80
2021/03/02 02:20:42;;;;;;;41.20;20.30;;;3.80;95.40;;;;;;4660422;30;20049;-81
2021/03/02 02:23:39;;;;;;;44.77;22.23;;;3.80;95.30;;;;;;4630868;30;20499;-79
2021/03/02 02:26:08;;;;;;;49.57;23.50;;;3.80;95.30;;;;;;4643971;30;20050;-81
2021/03/02 02:28:38;;;;;;;41.17;21.47;;;3.80;95.30;;;;;;4628892;30;20049;-83
2021/03/02 02:31:07;;;;;;;40.43;20.80;;;3.80;95.30;;;;;;4634174;30;20038;-83
2021/03/02 02:33:38;;;;;;;50.80;23.70;;;3.80;95.40;;;;;;4644583;30;20047;-83
2021/03/02 02:36:09;;;;;;;50.40;25.53;;;3.80;95.40;;;;;;4630662;30;20058;-82
2021/03/02 02:38:40;;;;;;;50.43;24.53;;;3.80;95.50;;;;;;4629232;30;20054;-81
2021/03/02 02:41:08;;;;;;;41.33;20.07;;;3.80;95.60;;;;;;4628287;30;20042;-80
2021/03/02 02:43:35;;;;;;;39.97;20.43;;;3.80;95.50;;;;;;4625322;30;20066;-82
2021/03/02 02:46:01;;;;;;;45.93;21.53;;;3.80;95.50;;;;;;4644400;30;20065;-82
2021/03/02 02:48:29;;;;;;;51.70;25.37;;;3.80;95.50;;;;;;4614802;30;20046;-80
2021/03/02 02:50:57;;;;;;;55.27;27.20;;;3.80;95.50;;;;;;4614209;30;20077;-80
2021/03/02 02:53:36;;;;;;;48.53;21.73;;;3.70;95.60;;;;;;4616868;30;20514;-80
2021/03/02 02:56:05;;;;;;;51.50;24.07;;;3.80;95.60;;;;;;4615922;30;20050;-81
2021/03/02 02:58:52;;;;;;;56.40;26.27;;;3.80;95.60;;;;;;4642306;30;20518;-82
2021/03/02 03:01:19;;;;;;;62.90;30.20;;;3.70;95.60;;;;;;4641603;30;20415;-82
2021/03/02 03:03:47;;;;;;;49.13;24.57;;;3.70;95.70;;;;;;4641946;30;20061;-84
2021/03/02 03:06:17;;;;;;;47.67;23.97;;;3.70;95.70;;;;;;4656150;30;20046;-83
2021/03/02 03:08:48;;;;;;;52.53;24.93;;;3.70;95.70;;;;;;4641250;30;20042;-83
2021/03/02 03:11:18;;;;;;;53.47;24.30;;;3.70;95.70;;;;;;4628976;30;20054;-81
2021/03/02 03:13:46;;;;;;;49.50;24.47;;;3.70;95.70;;;;;;4627305;30;20050;-85
2021/03/02 03:16:13;;;;;;;38.57;18.37;;;3.60;95.70;;;;;;4614405;30;20066;-82
2021/03/02 03:18:50;;;;;;;42.60;22.23;;;3.60;95.80;;;;;;4627794;30;20069;-85
2021/03/02 03:21:18;;;;;;;48.37;23.13;;;3.60;95.80;;;;;;4642431;30;20046;-84
2021/03/02 03:23:47;;;;;;;47.40;23.40;;;3.60;95.80;;;;;;4627733;30;20398;-80
2021/03/02 03:26:15;;;;;;;51.57;25.97;;;3.60;95.80;;;;;;4615193;30;20051;-85
2021/03/02 03:28:45;;;;;;;51.53;23.63;;;3.60;95.90;;;;;;4639445;30;20062;-82
2021/03/02 03:31:14;;;;;;;46.90;24.37;;;3.60;95.80;;;;;;4611040;30;20049;-80
2021/03/02 03:33:41;;;;;;;60.17;28.27;;;3.60;95.90;;;;;;4641689;30;20046;-84
2021/03/02 03:36:09;;;;;;;58.10;28.23;;;3.50;95.90;;;;;;4640361;30;20070;-86
2021/03/02 03:38:36;;;;;;;50.97;24.80;;;3.50;95.90;;;;;;4613843;30;20483;-83
2021/03/02 03:41:03;;;;;;;46.33;22.80;;;3.50;95.90;;;;;;4596547;30;20047;-81
2021/03/02 03:43:29;;;;;;;49.17;23.80;;;3.50;95.90;;;;;;4625253;30;20467;-81
2021/03/02 03:45:56;;;;;;;47.07;23.87;;;3.50;95.90;;;;;;4602775;30;20046;-83
2021/03/02 03:48:24;;;;;;;48.87;23.00;;;3.40;95.90;;;;;;4656416;30;20526;-84
2021/03/02 03:50:51;;;;;;;49.77;24.00;;;3.40;95.90;;;;;;4613729;30;20077;-83
2021/03/02 03:53:20;;;;;;;52.80;24.83;;;3.40;95.90;;;;;;4628288;30;20046;-79
2021/03/02 03:55:49;;;;;;;46.53;21.10;;;3.40;96.00;;;;;;4656971;30;20058;-82
2021/03/02 03:58:23;;;;;;;41.93;21.23;;;3.40;95.90;;;;;;4628161;30;20050;-80
2021/03/02 04:00:51;;;;;;;47.80;23.07;;;3.40;95.90;;;;;;4626852;30;20038;-79
2021/03/02 04:03:25;;;;;;;40.03;20.47;;;3.40;96.00;;;;;;4626961;30;20049;-77
2021/03/02 04:05:51;;;;;;;47.20;23.27;;;3.40;96.00;;;;;;4629310;30;20062;-77
2021/03/02 04:08:18;;;;;;;47.30;21.53;;;3.30;95.90;;;;;;4624252;30;20054;-83
2021/03/02 04:10:45;;;;;;;48.00;22.03;;;3.30;95.90;;;;;;4627381;30;20065;-78
2021/03/02 04:13:15;;;;;;;51.03;24.07;;;3.30;95.90;;;;;;4640402;30;20442;-80
2021/03/02 04:15:43;;;;;;;48.77;24.20;;;3.30;95.90;;;;;;4626896;30;20490;-80
2021/03/02 04:18:14;;;;;;;47.37;22.63;;;3.30;95.90;;;;;;4612300;30;20053;-81
2021/03/02 04:20:42;;;;;;;45.50;22.10;;;3.30;96.00;;;;;;4613810;30;20049;-81
2021/03/02 04:23:09;;;;;;;48.50;21.87;;;3.30;96.00;;;;;;4626189;30;20057;-78
2021/03/02 04:25:37;;;;;;;49.50;21.80;;;3.30;96.00;;;;;;4641815;30;20042;-78
2021/03/02 04:28:05;;;;;;;48.53;23.80;;;3.20;96.00;;;;;;4625807;30;20042;-82
2021/03/02 04:30:33;;;;;;;49.07;22.17;;;3.20;96.00;;;;;;4614094;30;20043;-83
2021/03/02 04:33:00;;;;;;;49.00;23.33;;;3.30;96.00;;;;;;4640372;30;20486;-82
2021/03/02 04:35:27;;;;;;;47.37;23.40;;;3.20;96.00;;;;;;4640713;30;20060;-82
2021/03/02 04:38:10;;;;;;;50.60;25.30;;;3.20;96.00;;;;;;4614236;30;20767;-81
2021/03/02 04:40:37;;;;;;;48.30;23.43;;;3.30;96.10;;;;;;4654146;30;20525;-84
2021/03/02 04:43:03;;;;;;;51.07;24.50;;;3.20;96.10;;;;;;4622716;30;20511;-79
2021/03/02 04:45:30;;;;;;;47.57;22.37;;;3.30;96.10;;;;;;4612113;30;20057;-83
2021/03/02 04:47:56;;;;;;;46.10;21.97;;;3.30;96.10;;;;;;4611359;30;20046;-83
2021/03/02 04:50:23;;;;;;;44.87;21.23;;;3.30;96.10;;;;;;4605787;30;20065;-78
2021/03/02 04:52:50;;;;;;;39.93;18.83;;;3.30;96.00;;;;;;4625991;30;20144;-80
2021/03/02 04:55:16;;;;;;;35.33;18.43;;;3.30;96.00;;;;;;4629818;30;20061;-78
2021/03/02 04:57:43;;;;;;;37.17;18.20;;;3.30;96.00;;;;;;4625704;30;20435;-82
2021/03/02 05:00:11;;;;;;;34.77;16.87;;;3.20;96.00;;;;;;4623225;30;20042;-78
2021/03/02 05:02:37;;;;;;;37.03;18.50;;;3.20;95.90;;;;;;4627027;30;20057;-80
2021/03/02 05:05:06;;;;;;;38.50;19.90;;;3.20;96.00;;;;;;4658041;30;20820;-84
2021/03/02 05:07:33;;;;;;;38.20;19.27;;;3.10;96.00;;;;;;4630259;30;20042;-83
2021/03/02 05:10:00;;;;;;;42.13;20.97;;;3.20;96.00;;;;;;4629155;30;20047;-82
2021/03/02 05:12:27;;;;;;;36.00;18.30;;;3.10;95.90;;;;;;4642398;30;20069;-85
2021/03/02 05:14:54;;;;;;;40.47;19.37;;;3.10;95.90;;;;;;4612241;30;20057;-86
2021/03/02 05:17:20;;;;;;;42.87;20.77;;;3.10;95.90;;;;;;4615491;30;20076;-84
2021/03/02 05:19:47;;;;;;;37.30;20.10;;;3.10;96.00;;;;;;4628645;30;20057;-79
2021/03/02 05:22:14;;;;;;;34.90;16.50;;;3.10;96.00;;;;;;4629058;30;20074;-78
2021/03/02 05:24:40;;;;;;;45.20;21.80;;;3.10;96.00;;;;;;4625295;30;20046;-81
2021/03/02 05:27:07;;;;;;;47.47;23.30;;;3.10;96.00;;;;;;4614086;30;20051;-79
2021/03/02 05:29:33;;;;;;;56.60;26.60;;;3.10;96.10;;;;;;4615994;30;20054;-85
2021/03/02 05:32:00;;;;;;;52.60;25.80;;;3.10;96.20;;;;;;4619964;30;20062;-84
2021/03/02 05:34:26;;;;;;;44.70;23.17;;;3.20;96.30;;;;;;4626901;30;20069;-80
2021/03/02 05:36:53;;;;;;;44.40;22.63;;;3.20;96.20;;;;;;4627950;30;20593;-82
2021/03/02 05:39:19;;;;;;;50.03;23.57;;;3.20;96.20;;;;;;4631116;30;20057;-81
2021/03/02 05:41:46;;;;;;;50.57;24.57;;;3.20;96.10;;;;;;4631927;30;20062;-80
2021/03/02 05:44:13;;;;;;;44.47;21.63;;;3.20;96.20;;;;;;4647116;30;20468;-80
2021/03/02 05:46:42;;;;;;;44.47;21.33;;;3.20;96.30;;;;;;4645749;30;20049;-82
2021/03/02 05:49:13;;;;;;;47.10;22.47;;;3.20;96.30;;;;;;4628784;30;20035;-80
2021/03/02 05:51:41;;;;;;;41.70;21.30;;;3.20;96.30;;;;;;4646389;30;20467;-82
2021/03/02 05:54:09;;;;;;;44.23;23.13;;;3.20;96.20;;;;;;4630791;30;20136;-81
2021/03/02 05:56:38;;;;;;;42.33;21.70;;;3.20;96.20;;;;;;4645445;30;20054;-82
2021/03/02 05:59:06;;;;;;;41.67;21.43;;;3.20;96.30;;;;;;4618226;30;20043;-82
2021/03/02 06:01:33;;;;;;;41.97;22.17;;;3.20;96.30;;;;;;4618546;30;21108;-83
2021/03/02 06:04:00;;;;;;;37.23;19.37;;;3.20;96.20;;;;;;4631585;30;20050;-80
2021/03/02 06:06:27;;;;;;;47.17;23.80;;;3.20;96.20;;;;;;4630541;30;20055;-82
2021/03/02 06:08:54;;;;;;;47.13;24.47;;;3.20;96.30;;;;;;4631155;30;20069;-80
2021/03/02 06:11:25;;;;;;;40.27;22.63;;;3.20;96.30;;;;;;4646232;30;20069;-85
2021/03/02 06:13:52;;;;;;;46.47;23.97;;;3.20;96.30;;;;;;4617901;30;20054;-81
2021/03/02 06:16:20;;;;;;;43.63;23.03;;;3.20;96.30;;;;;;4633061;30;20042;-83
2021/03/02 06:18:48;;;;;;;45.67;24.53;;;3.20;96.30;;;;;;4644274;30;20142;-81
2021/03/02 06:21:16;;;;;;;35.80;20.47;;;3.20;96.20;;;;;;4616778;30;20046;-82
2021/03/02 06:23:48;;;;;;;49.77;25.53;;;3.30;96.30;;;;;;4630708;30;20057;-82
2021/03/02 06:26:24;;;;;;;47.83;24.90;;;3.30;96.30;;;;;;4617564;30;20073;-82
2021/03/02 06:29:01;;;;;;;40.63;22.00;;;3.30;96.30;;;;;;4632003;30;20054;-83
2021/03/02 06:31:38;;;;;;;38.13;21.03;;;3.40;96.30;;;;;;4616145;30;20038;-83
2021/03/02 06:34:14;;;;;;;39.83;21.60;;;3.40;96.20;;;;;;4629104;30;20058;-82
2021/03/02 06:37:02;;;;;;;35.47;18.87;;;3.40;96.20;;;;;;4630606;30;20062;-84
2021/03/02 06:39:30;;;;;;;38.70;20.33;;;3.40;96.10;;;;;;4631101;30;20050;-86
2021/03/02 06:42:19;;;;;;;37.50;21.13;;;3.50;96.10;;;;;;4631722;30;20065;-84
2021/03/02 06:45:07;;;;;;;40.00;22.00;;;3.50;96.10;;;;;;4645907;30;20046;-84
2021/03/02 06:47:36;;;;;;;40.20;22.23;;;3.60;96.10;;;;;;4630127;30;20053;-80
2021/03/02 06:50:13;;;;;;;37.73;20.37;;;3.70;96.00;;;;;;4644180;30;20479;-82
2021/03/02 06:52:43;;;;;;;37.33;20.90;;;3.80;96.20;;;;;;4630635;30;20045;-83
2021/03/02 06:55:16;;;;;;;41.23;21.50;;;3.80;95.90;;;;;;4622829;30;20051;-83
2021/03/02 06:57:44;;;;;;;40.05;22.63;;;3.90;95.80;;;;;;4645536;30;20058;-83
2021/03/02 07:00:11;;;;;;;37.43;20.73;;;4.00;95.70;;;;;;4616255;30;20050;-82
2021/03/02 07:02:38;;;;;;;33.13;18.77;;;4.10;95.60;;;;;;4613472;30;21003;-83
2021/03/02 07:05:16;;;;;;;38.27;21.67;;;4.10;95.50;;;;;;4616690;30;20399;-83
2021/03/02 07:07:44;;;;;;;36.40;19.23;;;4.20;95.50;;;;;;4643583;30;20061;-83
2021/03/02 07:10:12;;;;;;;37.07;21.67;;;4.30;95.40;;;;;;4642785;30;20065;-82
2021/03/02 07:12:41;;;;;;;36.43;20.97;;;4.40;95.30;;;;;;4613475;30;20066;-83
2021/03/02 07:15:17;;;;;;;34.77;19.43;;;4.40;95.10;;;;;;4642775;30;20057;-83
2021/03/02 07:17:47;;;;;;;40.40;22.10;;;4.50;95.10;;;;;;4605503;30;20065;-80
2021/03/02 07:20:16;;;;;;;34.83;19.27;;;4.60;95.00;;;;;;4643068;30;20062;-84
2021/03/02 07:22:50;;;;;;;36.70;19.90;;;4.70;94.80;;;;;;4605966;30;20468;-83
2021/03/02 07:25:19;;;;;;;36.40;19.73;;;4.80;94.60;;;;;;4627321;30;20411;-83
2021/03/02 07:27:49;;;;;;;32.30;18.60;;;5.00;94.50;;;;;;4625711;30;20070;-83
2021/03/02 07:30:16;;;;;;;31.57;19.07;;;5.00;94.40;;;;;;4643824;30;20050;-86
2021/03/02 07:32:50;;;;;;;31.37;16.77;;;5.10;94.20;;;;;;4662245;30;20094;-90
2021/03/02 07:35:22;;;;;;;29.92;16.92;;;5.20;94.10;;;;;;4613263;30;20049;-88
2021/03/02 07:37:50;;;;;;;26.07;15.73;;;5.30;94.00;;;;;;4624776;30;20077;-81
2021/03/02 07:40:21;;;;;;;25.17;15.10;;;5.40;94.00;;;;;;4658851;30;20042;-91
2021/03/02 07:42:48;;;;;;;27.98;17.23;;;5.50;93.80;;;;;;4627366;30;20512;-81
2021/03/02 07:45:20;;;;;;;32.30;18.03;;;5.60;93.70;;;;;;4643238;30;20045;-87
2021/03/02 07:47:48;;;;;;;27.83;15.43;;;5.70;93.60;;;;;;4613086;30;20513;-81
2021/03/02 07:50:24;;;;;;;31.60;17.53;;;5.80;93.50;;;;;;4618699;30;20054;-85
2021/03/02 07:53:24;;;;;;;29.83;17.50;;;5.90;93.30;;;;;;4656042;30;20073;-84
2021/03/02 07:56:12;;;;;;;27.52;18.02;;;6.00;93.00;;;;;;4628899;30;20050;-86
2021/03/02 07:58:39;;;;;;;25.17;15.67;;;6.10;92.70;;;;;;4614724;30;20077;-83
2021/03/02 08:01:25;;;;;;;28.08;16.48;;;6.20;92.70;;;;;;4615161;30;20047;-83
2021/03/02 08:04:14;;;;;;;28.87;17.50;;;6.30;92.50;;;;;;4614533;30;20499;-84
2021/03/02 08:06:43;;;;;;;26.50;14.73;;;6.40;92.20;;;;;;4631509;30;20054;-81
2021/03/02 08:09:21;;;;;;;27.95;16.83;;;6.50;92.20;;;;;;4640586;30;20046;-88
2021/03/02 08:11:50;;;;;;;26.88;15.90;;;6.60;91.70;;;;;;4641305;30;20054;-84
2021/03/02 08:14:16;;;;;;;29.53;16.37;;;6.70;91.60;;;;;;4622993;30;20058;-82
2021/03/02 08:17:05;;;;;;;26.55;16.85;;;6.80;91.40;;;;;;4627197;30;20050;-83
2021/03/02 08:19:37;;;;;;;30.45;18.40;;;6.80;91.00;;;;;;4626180;30;20042;-83
2021/03/02 08:22:26;;;;;;;26.20;16.02;;;7.00;90.70;;;;;;4624958;30;20062;-81
2021/03/02 08:25:02;;;;;;;29.52;17.10;;;7.00;90.60;;;;;;4622480;30;20518;-83
2021/03/02 08:27:38;;;;;;;25.40;15.93;;;7.10;90.40;;;;;;4628737;30;20085;-83
2021/03/02 08:30:11;;;;;;;29.65;17.42;;;7.10;90.10;;;;;;4657653;30;20113;-83
2021/03/02 08:32:39;;;;;;;28.85;17.20;;;7.20;90.00;;;;;;4646723;30;20143;-81
2021/03/02 08:35:08;;;;;;;28.38;17.38;;;7.30;89.80;;;;;;4640899;30;20453;-80
2021/03/02 08:37:51;;;;;;;27.73;16.90;;;7.30;89.30;;;;;;4640016;30;20062;-84
2021/03/02 08:40:23;;;;;;;24.63;14.65;;;7.40;88.40;;;;;;4655111;30;20528;-84
2021/03/02 08:43:01;;;;;;;25.83;16.13;;;7.40;88.50;;;;;;4626763;30;20156;-82
2021/03/02 08:45:30;;;;;;;24.48;15.52;;;7.50;87.90;;;;;;4640336;30;20054;-80
2021/03/02 08:48:20;;;;;;;26.98;16.85;;;7.60;88.00;;;;;;4640323;30;20074;-85
2021/03/02 08:50:52;;;;;;;23.30;14.68;;;7.70;87.50;;;;;;4626496;30;20040;-82
2021/03/02 08:53:35;;;;;;;24.00;15.60;;;7.70;87.50;;;;;;4639434;30;20061;-82
2021/03/02 08:56:05;;;;;;;21.23;14.27;;;7.80;87.20;;;;;;4628812;30;20051;-82
2021/03/02 08:58:39;;;;;;;23.63;15.30;;;7.90;86.20;;;;;;4629792;30;20050;-84
2021/03/02 09:01:09;;;;;;;21.23;13.02;;;8.00;86.10;;;;;;4629383;30;20443;-80
2021/03/02 09:03:43;;;;;;;23.73;14.05;;;8.10;86.30;;;;;;4645343;30;20712;-81
2021/03/02 09:06:14;;;;;;;23.20;14.70;;;8.20;86.10;;;;;;4647816;30;20057;-86
2021/03/02 09:08:41;;;;;;;24.55;15.00;;;8.30;85.80;;;;;;4631982;30;20730;-82
2021/03/02 09:11:08;;;;;;;23.80;15.90;;;8.40;85.20;;;;;;4661552;30;20391;-81
2021/03/02 09:13:39;;;;;;;23.42;15.82;;;8.40;84.80;;;;;;4658986;30;20054;-81
2021/03/02 09:16:25;;;;;;;22.95;14.25;;;8.50;82.90;;;;;;4660053;30;20057;-81
2021/03/02 09:19:03;;;;;;;26.65;16.20;;;8.60;83.70;;;;;;4643175;30;20038;-82
2021/03/02 09:21:30;;;;;;;26.52;16.38;;;8.70;83.70;;;;;;4630058;30;20042;-81
2021/03/02 09:23:58;;;;;;;24.80;16.58;;;8.80;83.00;;;;;;4643165;30;20061;-81
2021/03/02 09:26:26;;;;;;;22.95;14.73;;;8.90;81.30;;;;;;4618356;30;20054;-82
2021/03/02 09:29:12;;;;;;;27.02;16.15;;;8.90;81.10;;;;;;4632218;30;20407;-85
2021/03/02 09:31:38;;;;;;;22.92;14.85;;;8.90;81.30;;;;;;4631747;30;20061;-84
2021/03/02 09:34:05;;;;;;;26.33;17.05;;;9.00;81.00;;;;;;4629447;30;20058;-81
2021/03/02 09:36:32;;;;;;;23.50;15.57;;;9.00;80.90;;;;;;4624859;30;20084;-84
2021/03/02 09:38:59;;;;;;;23.60;15.38;;;9.10;81.00;;;;;;4628510;30;20423;-82
2021/03/02 09:41:45;;;;;;;21.95;14.13;;;9.20;80.80;;;;;;4657218;30;20058;-82
2021/03/02 09:44:25;;;;;;;22.65;15.38;;;9.30;79.40;;;;;;4655098;30;20411;-82
2021/03/02 09:46:54;;;;;;;22.83;16.00;;;9.30;79.50;;;;;;4628959;30;20046;-86
2021/03/02 09:49:55;;;;;;;28.17;15.95;;;9.40;79.40;;;;;;4628014;30;20049;-85
2021/03/02 09:52:35;;;;;;;24.15;14.45;;;9.50;78.60;;;;;;4650041;30;20054;-86
2021/03/02 09:55:27;;;;;;;23.60;16.00;;;9.60;78.70;;;;;;4643548;30;20145;-82
2021/03/02 09:58:11;;;;;;;25.00;15.25;;;9.80;78.50;;;;;;4645532;30;20050;-82
2021/03/02 10:00:52;;;;;;;24.48;16.90;;;9.90;77.90;;;;;;4622552;30;20069;-80
2021/03/02 10:03:21;;;;;;;23.75;15.50;;;10.00;77.50;;;;;;4626918;30;20046;-80
2021/03/02 10:05:56;;;;;;;22.85;15.45;;;10.00;77.50;;;;;;4603415;30;20045;-79
2021/03/02 10:08:43;;;;;;;25.50;16.13;;;10.10;78.20;;;;;;4622139;30;20050;-79
2021/03/02 10:11:12;;;;;;;21.40;14.88;;;10.20;78.30;;;;;;4631984;30;20050;-79
2021/03/02 10:13:44;;;;;;;22.15;15.13;;;10.30;78.40;;;;;;4642114;30;20046;-80
2021/03/02 10:16:22;;;;;;;22.02;14.85;;;10.50;78.20;;;;;;4659057;30;20065;-80
2021/03/02 10:18:56;;;;;;;22.90;15.55;;;10.70;78.00;;;;;;4655137;30;20046;-80
2021/03/02 10:21:26;;;;;;;24.98;15.52;;;11.00;77.40;;;;;;4620862;30;20049;-78
2021/03/02 10:23:55;;;;;;;25.70;16.35;;;11.20;76.70;;;;;;4637604;30;20873;-80
2021/03/02 10:26:34;;;;;;;22.02;14.23;;;11.40;75.80;;;;;;4644859;30;20062;-81
2021/03/02 10:29:01;;;;;;;24.58;15.88;;;11.70;76.90;;;;;;4641098;30;21019;-79
2021/03/02 10:31:29;;;;;;;18.90;14.48;;;12.00;77.40;;;;;;4661030;30;20043;-79
2021/03/02 10:33:59;;;;;;;20.83;14.38;;;12.30;75.90;;;;;;4658446;30;20054;-80
2021/03/02 10:36:33;;;;;;;21.42;15.73;;;12.80;76.30;;;;;;4642529;30;20066;-78
2021/03/02 10:39:03;;;;;;;22.77;15.75;;;13.10;74.90;;;;;;4645064;30;20053;-78
2021/03/02 10:41:29;;;;;;;20.55;14.02;;;13.50;72.60;;;;;;4647900;30;20069;-81
2021/03/02 10:43:57;;;;;;;19.00;13.80;;;13.70;70.80;;;;;;4654303;30;20137;-80
2021/03/02 10:46:27;;;;;;;17.20;13.45;;;13.90;69.60;;;;;;4640303;30;20502;-75
2021/03/02 10:48:55;;;;;;;16.30;12.10;;;14.10;68.90;;;;;;4639556;30;20047;-77
2021/03/02 10:51:23;;;;;;;16.85;13.10;;;14.40;69.10;;;;;;4613265;30;21412;-78
2021/03/02 10:53:51;;;;;;;17.27;13.43;;;14.70;68.90;;;;;;4640397;30;20301;-78
2021/03/02 10:56:18;;;;;;;17.30;12.45;;;15.00;67.30;;;;;;4610162;30;20054;-77
2021/03/02 10:58:45;;;;;;;16.95;12.95;;;15.30;66.00;;;;;;4657424;30;20042;-78
2021/03/02 11:01:13;;;;;;;18.23;12.00;;;15.60;63.60;;;;;;4613927;30;20042;-80
2021/03/02 11:03:42;;;;;;;16.50;11.68;;;15.80;64.10;;;;;;4642199;30;20494;-80
2021/03/02 11:06:15;;;;;;;18.17;12.43;;;16.20;62.10;;;;;;4629524;30;20042;-80
2021/03/02 11:08:44;;;;;;;14.88;11.55;;;16.30;60.40;;;;;;4631667;30;21146;-79
2021/03/02 11:11:12;;;;;;;14.23;10.88;;;16.50;60.60;;;;;;4628718;30;20049;-80
2021/03/02 11:13:40;;;;;;;14.40;10.43;;;16.80;59.30;;;;;;4629485;30;20147;-80
2021/03/02 11:16:06;;;;;;;14.23;10.27;;;17.00;58.30;;;;;;4625934;30;20058;-81
2021/03/02 11:18:33;;;;;;;13.00;9.65;;;17.10;56.70;;;;;;4613901;30;20050;-80
2021/03/02 11:21:00;;;;;;;14.52;10.05;;;17.40;56.30;;;;;;4657546;30;20066;-81
2021/03/02 11:23:26;;;;;;;14.73;9.77;;;17.50;55.40;;;;;;4625548;30;20058;-80
2021/03/02 11:25:53;;;;;;;14.10;11.95;;;17.70;54.00;;;;;;4629339;30;20534;-80
2021/03/02 11:28:20;;;;;;;13.65;9.45;;;17.80;52.50;;;;;;4644384;30;20081;-81
2021/03/02 11:30:46;;;;;;;12.65;9.45;;;17.90;54.30;;;;;;4601389;30;20815;-82
2021/03/02 11:33:14;;;;;;;11.93;7.90;;;18.20;54.40;;;;;;4643935;30;20423;-81
2021/03/02 11:35:42;;;;;;;13.60;10.05;;;18.60;54.60;;;;;;4627134;30;20062;-82
2021/03/02 11:38:09;;;;;;;12.63;9.02;;;18.90;51.90;;;;;;4631555;30;20063;-81
2021/03/02 11:40:36;;;;;;;11.05;7.93;;;19.00;49.20;;;;;;4614053;30;20058;-79
2021/03/02 11:43:03;;;;;;;10.60;7.93;;;19.10;48.80;;;;;;4620644;30;20047;-91
2021/03/02 11:45:34;;;;;;;8.93;7.03;;;19.20;48.40;;;;;;4593171;30;20043;-82
2021/03/02 11:48:00;;;;;;;9.98;7.72;;;19.30;47.40;;;;;;4618284;30;20062;-86
2021/03/02 11:50:27;;;;;;;12.95;8.25;;;19.40;46.90;;;;;;4609953;30;20059;-88
2021/03/02 11:52:53;;;;;;;12.02;7.85;;;19.50;46.10;;;;;;4612037;30;20062;-89
2021/03/02 11:55:20;;;;;;;15.45;9.18;;;19.60;46.50;;;;;;4599475;30;20058;-87
2021/03/02 11:57:48;;;;;;;10.82;7.55;;;19.70;45.50;;;;;;4601649;30;20099;-87
2021/03/02 12:00:18;;;;;;;10.07;7.32;;;19.50;45.50;;;;;;4599240;30;20077;-84
2021/03/02 12:02:46;;;;;;;12.25;8.30;;;19.40;45.60;;;;;;4633452;30;20058;-81
2021/03/02 12:05:14;;;;;;;13.63;8.38;;;19.30;45.10;;;;;;4609325;30;20054;-90
2021/03/02 12:07:41;;;;;;;15.20;8.75;;;19.40;45.40;;;;;;4610471;30;20060;-91
2021/03/02 12:10:11;;;;;;;11.50;8.88;;;19.80;46.00;;;;;;4618950;30;20058;-89
2021/03/02 12:12:38;;;;;;;9.85;7.13;;;20.30;44.60;;;;;;4610169;30;20039;-90
2021/03/02 12:15:06;;;;;;;10.10;8.15;;;20.70;44.20;;;;;;4602270;30;20062;-88
2021/03/02 12:17:33;;;;;;;8.80;7.65;;;21.00;42.70;;;;;;4618720;30;20046;-83
2021/03/02 12:20:00;;;;;;;11.13;7.65;;;21.00;42.20;;;;;;4620700;30;20043;-83
2021/03/02 12:22:30;;;;;;;11.48;8.13;;;21.10;42.30;;;;;;4607246;30;20043;-83
2021/03/02 12:24:56;;;;;;;12.10;8.43;;;21.30;42.70;;;;;;4611662;30;20063;-85
2021/03/02 12:27:23;;;;;;;11.07;8.77;;;21.60;40.20;;;;;;4606653;30;20073;-83
2021/03/02 12:29:50;;;;;;;10.88;8.05;;;21.70;40.20;;;;;;4619381;30;20038;-83
2021/03/02 12:32:16;;;;;;;13.55;8.68;;;21.90;41.10;;;;;;4613553;30;20047;-84
2021/03/02 12:34:43;;;;;;;11.88;9.65;;;22.20;39.20;;;;;;4611503;30;20062;-84
2021/03/02 12:37:09;;;;;;;13.35;9.95;;;22.30;39.20;;;;;;4599078;30;20062;-85
2021/03/02 12:39:39;;;;;;;13.30;8.50;;;22.40;37.30;;;;;;4627534;30;20047;-83
2021/03/02 12:42:05;;;;;;;12.98;9.27;;;22.10;38.20;;;;;;4631933;30;20058;-83
2021/03/02 12:44:35;;;;;;;10.45;8.90;;;22.20;38.70;;;;;;4645784;30;20042;-84
2021/03/02 12:47:04;;;;;;;12.70;8.40;;;22.40;38.50;;;;;;4644676;30;20054;-83
2021/03/02 12:49:31;;;;;;;12.85;10.02;;;22.70;38.60;;;;;;4614215;30;20045;-91
2021/03/02 12:51:57;;;;;;;13.23;10.40;;;23.00;36.80;;;;;;4619270;30;20596;-91
2021/03/02 12:54:28;;;;;;;11.35;8.65;;;23.10;37.20;;;;;;4617626;30;20066;-91
2021/03/02 12:56:55;;;;;;;12.07;9.20;;;23.10;36.90;;;;;;4627643;30;20133;-90